Airfield :
LOGIN :

Register | Disclaimer

   EN    FR    IT 

 










Legend :    VFR   Marginal VFR   IFR   Intensive IFR   Very Intensive IFR
Visi :
Ceiling :
>= 8 km
>= 3000ft
5 to 8 km
1000 to 3000 ft
1500m to 5 km
500 to 1000 ft
800 to 1500m
200 to 500 ft
< 800m
< 200 ft
Symbols :   Thunderstorms  Fog  Heavy snow  Heavy precipitations  Wind > 20 kt
SIGMETs :     Misc.  Thunderstorms  Icing  Turbulence  Mountain Waves  Volcanic Ashes







- Airport Elevation : 529 ft
- IATA code : CHR
- Download approach charts


LFLX - Chateauroux

CURRENT METAR :
  • 160430Z AUTO 15002KT 7000 NSC M01/M03 Q1027 TEMPO 3000 BR

EXPIRED METARs :
  • 160400Z AUTO 13001KT 8000 NSC M01/M02 Q1027 TEMPO 3000 BR
  • 160330Z AUTO 14003KT 8000 NSC M01/M02 Q1027 TEMPO 3000 BR
  • 160300Z AUTO 19001KT 8000 NSC M01/M02 Q1027 TEMPO 3000 BR
  • 160230Z AUTO 00000KT 8000 NSC M01/M02 Q1027 TEMPO 3000 BR
  • 160200Z AUTO 31002KT 9000 NSC M00/M02 Q1027 TEMPO 3000 BR

TAF TAF LFLX
Valid from the 16 at 00:00 until the 17 at 06:00 UTC


152300Z 1600/1706 14003KT CAVOK
PROB30
TEMPO 1602/1608 3000 BR
PROB30
TEMPO 1622/1706 3000 BR
No reported NOTAMs for that airfield.



MET'MAP, your aeronautical weather chart ! - Copyright ORBIFLY December 2007 - Disclaimer

ORBIFLY MET'MAP TEAM :

Programming & Development : Alexandra Zaïnal
Concept & Development : Baudouin d'Aumeries
Co-Development & Prog : Marc-Olivier Méhu
Technical & hardware support : Manuel Goepfert

Contact : metmap@orbifly.com




SOURCES & CREDITS :

   NOAA